createdAt,value
2023-04-08T00:03:53.249Z,9.73
2023-04-08T00:08:57.626Z,10.30
2023-04-08T00:14:01.007Z,8.77
2023-04-08T00:19:03.043Z,9.73
2023-04-08T00:24:07.717Z,11.23
2023-04-08T00:29:39.080Z,8.63
2023-04-08T00:34:43.714Z,9.40
2023-04-08T00:39:48.571Z,9.73
2023-04-08T00:44:52.836Z,9.67
2023-04-08T00:49:54.872Z,11.13
2023-04-08T00:55:11.353Z,10.57
2023-04-08T01:00:17.637Z,9.47
2023-04-08T01:05:51.702Z,10.47
2023-04-08T01:10:54.947Z,9.13
2023-04-08T01:16:05.635Z,10.43
2023-04-08T01:21:10.403Z,10.30
2023-04-08T01:26:16.088Z,11.13
2023-04-08T01:31:18.800Z,10.37
2023-04-08T01:36:22.254Z,10.10
2023-04-08T01:46:51.531Z,9.57
2023-04-08T01:51:54.311Z,10.70
2023-04-08T01:57:06.246Z,10.57
2023-04-08T02:02:18.426Z,10.47
2023-04-08T02:07:30.096Z,11.10
2023-04-08T02:12:37.546Z,12.13
2023-04-08T02:17:58.040Z,11.30
2023-04-08T02:23:08.378Z,10.60
2023-04-08T02:28:12.186Z,11.83
2023-04-08T02:33:24.761Z,11.50
2023-04-08T02:38:34.114Z,10.63
2023-04-08T02:44:10.941Z,9.67
2023-04-08T02:49:13.575Z,10.30
2023-04-08T02:54:18.945Z,9.90
2023-04-08T02:59:20.697Z,10.63
2023-04-08T03:10:39.746Z,11.17
2023-04-08T03:15:41.950Z,10.47
2023-04-08T03:20:48.880Z,11.40
2023-04-08T03:26:06.072Z,11.50
2023-04-08T03:31:20.130Z,11.03
2023-04-08T03:36:22.199Z,10.73
2023-04-08T03:41:24.022Z,10.87
2023-04-08T03:46:26.279Z,9.93
2023-04-08T03:51:33.273Z,10.30
2023-04-08T03:56:35.430Z,10.10
2023-04-08T04:01:40.719Z,10.03
2023-04-08T04:06:50.092Z,11.33
2023-04-08T04:11:51.954Z,10.00
2023-04-08T04:16:54.038Z,10.43
2023-04-08T04:21:59.477Z,10.30
2023-04-08T04:27:01.359Z,11.30
2023-04-08T04:32:06.759Z,10.57
2023-04-08T04:37:10.953Z,10.23
2023-04-08T04:42:12.948Z,8.73
2023-04-08T04:47:26.649Z,10.20
2023-04-08T04:52:31.747Z,9.87
2023-04-08T04:57:49.793Z,9.23
2023-04-08T05:02:51.769Z,10.93
2023-04-08T05:07:54.066Z,10.50
2023-04-08T05:13:02.566Z,11.37
2023-04-08T05:18:06.154Z,11.17
2023-04-08T05:23:08.903Z,11.53
2023-04-08T05:28:11.990Z,11.13
2023-04-08T05:33:15.883Z,10.63
2023-04-08T05:38:17.860Z,11.20
2023-04-08T05:43:20.466Z,10.57
2023-04-08T05:48:25.483Z,9.67
2023-04-08T05:53:28.661Z,10.57
2023-04-08T05:58:30.953Z,10.03
2023-04-08T06:03:35.961Z,9.10
2023-04-08T06:08:55.053Z,9.83
2023-04-08T06:14:25.774Z,9.57
2023-04-08T06:19:27.849Z,8.80
2023-04-08T06:25:34.347Z,8.43
2023-04-08T06:30:38.639Z,8.70
2023-04-08T06:36:30.442Z,9.03
2023-04-08T06:42:17.893Z,8.30
2023-04-08T06:47:26.642Z,9.20
2023-04-08T06:57:55.509Z,8.20
2023-04-08T07:03:05.172Z,10.03
2023-04-08T07:08:07.063Z,8.30
2023-04-08T07:13:46.219Z,8.63
2023-04-08T07:19:26.957Z,8.97
2023-04-08T07:24:35.811Z,9.27
2023-04-08T07:35:00.619Z,10.20
2023-04-08T07:40:03.100Z,8.73
2023-04-08T07:45:50.442Z,8.70
2023-04-08T07:51:08.283Z,8.77
2023-04-08T07:56:26.526Z,8.77
2023-04-08T08:01:40.677Z,8.87
2023-04-08T08:06:42.823Z,8.83
2023-04-08T08:11:47.918Z,7.83
2023-04-08T08:28:14.930Z,9.80
2023-04-08T08:39:02.438Z,10.27
2023-04-08T08:50:20.370Z,9.50
2023-04-08T08:56:44.974Z,11.17
2023-04-08T09:08:18.161Z,8.47
2023-04-08T09:25:32.297Z,9.00
2023-04-08T09:30:55.351Z,10.37
2023-04-08T09:49:05.424Z,8.87
2023-04-08T10:00:23.342Z,9.90
2023-04-08T10:11:49.426Z,9.27
2023-04-08T10:16:51.774Z,11.13
2023-04-08T10:21:55.874Z,9.83
2023-04-08T10:27:50.034Z,9.40
2023-04-08T10:33:15.718Z,11.57
2023-04-08T10:38:18.770Z,11.27
2023-04-08T10:43:24.481Z,10.13
2023-04-08T10:54:53.784Z,9.90
2023-04-08T11:07:07.875Z,11.10
2023-04-08T11:12:27.950Z,9.93
2023-04-08T11:17:37.925Z,10.83
2023-04-08T11:22:40.255Z,11.20
2023-04-08T11:27:51.762Z,10.70
2023-04-08T11:33:36.550Z,11.90
2023-04-08T11:50:36.251Z,11.47
2023-04-08T11:56:05.819Z,11.70
2023-04-08T12:21:49.681Z,12.50
2023-04-08T12:33:06.842Z,16.40
2023-04-08T12:57:57.798Z,14.83
2023-04-08T13:03:01.574Z,15.73
2023-04-08T13:09:00.027Z,14.47
2023-04-08T13:14:20.309Z,14.30
2023-04-08T13:25:53.130Z,13.70
2023-04-08T13:31:42.581Z,14.40
2023-04-08T13:49:20.761Z,15.73
2023-04-08T14:01:35.484Z,16.30
2023-04-08T14:12:20.121Z,17.70
2023-04-08T15:25:57.881Z,14.03
2023-04-08T18:07:55.005Z,16.77
2023-04-08T18:28:08.831Z,23.70
2023-04-08T19:08:12.935Z,19.77
2023-04-08T19:33:22.048Z,20.73
2023-04-08T19:38:52.473Z,21.57
2023-04-08T19:44:17.278Z,21.77
2023-04-08T19:49:58.519Z,23.10
2023-04-08T19:55:00.545Z,20.83
2023-04-08T20:12:39.166Z,22.77
2023-04-08T20:17:45.924Z,21.93
2023-04-08T20:28:43.251Z,24.90
2023-04-08T20:33:57.396Z,23.57
2023-04-08T20:39:04.901Z,20.83
2023-04-08T20:44:09.902Z,19.83
2023-04-08T20:49:12.159Z,17.93
2023-04-08T20:54:22.525Z,19.50
2023-04-08T20:59:34.245Z,19.10
2023-04-08T21:04:45.087Z,18.87
2023-04-08T21:09:56.218Z,19.13
2023-04-08T21:15:00.640Z,18.37
2023-04-08T21:20:04.617Z,17.03
2023-04-08T21:31:53.836Z,16.93
2023-04-08T21:38:07.191Z,18.40
2023-04-08T21:44:25.570Z,18.50
2023-04-08T21:50:20.949Z,18.07
2023-04-08T21:55:26.707Z,18.20
2023-04-08T22:00:32.339Z,18.97
2023-04-08T22:45:18.509Z,22.23
2023-04-08T22:56:29.408Z,21.30
2023-04-08T23:07:10.790Z,23.00
2023-04-08T23:12:12.723Z,21.87
2023-04-08T23:23:10.709Z,24.77
2023-04-08T23:28:20.191Z,24.30
2023-04-08T23:33:25.399Z,21.27
2023-04-08T23:38:27.377Z,22.00
2023-04-08T23:43:32.344Z,21.43
2023-04-08T23:48:48.197Z,23.13
2023-04-08T23:53:52.163Z,21.10
2023-04-08T23:58:54.662Z,21.27
